Terminal Aerodrome Forecast
Issued by NWS North Platte, NE

Home | Current Version | Previous Version | Text Only | Print | Product List | Glossary Off
Versions: 1 2 3 4 5 6 7 8 9 10 11 12 13 14 15 16 17 18 19 20

000
FTUS43 KLBF 190824 AAB
TAFVTN
TAF AMD
KVTN 190824Z 1908/2006 03014G25KT 1SM BR OVC002
     FM191200 01014G20KT P6SM OVC007
     FM191700 01014G20KT 6SM SHRA OVC020
     FM192300 02013KT P6SM OVC035
     FM200500 01009KT P6SM OVC080=

USA.gov is the U.S. government's official web portal to all federal, state and local government web resources and services.